sensor_id;sensor_type;location;lat;lon;timestamp;P1;durP1;ratioP1;P2;durP2;ratioP2
14474;SDS011;7323;50.848;4.334;2023-06-19T00:00:13;8.07;;;4.63;;
14474;SDS011;7323;50.848;4.334;2023-06-19T00:02:41;5.83;;;4.10;;
14474;SDS011;7323;50.848;4.334;2023-06-19T00:05:08;5.53;;;4.10;;
14474;SDS011;7323;50.848;4.334;2023-06-19T00:07:36;5.63;;;4.40;;
14474;SDS011;7323;50.848;4.334;2023-06-19T00:10:02;7.13;;;4.40;;
14474;SDS011;7323;50.848;4.334;2023-06-19T00:12:28;5.63;;;4.30;;
14474;SDS011;7323;50.848;4.334;2023-06-19T00:14:54;5.20;;;4.17;;
14474;SDS011;7323;50.848;4.334;2023-06-19T00:17:20;5.97;;;4.40;;
14474;SDS011;7323;50.848;4.334;2023-06-19T00:19:45;5.00;;;3.93;;
14474;SDS011;7323;50.848;4.334;2023-06-19T00:24:52;5.07;;;3.97;;
14474;SDS011;7323;50.848;4.334;2023-06-19T00:27:17;6.53;;;3.80;;
14474;SDS011;7323;50.848;4.334;2023-06-19T00:29:43;5.57;;;3.70;;
14474;SDS011;7323;50.848;4.334;2023-06-19T00:32:09;4.67;;;3.73;;
14474;SDS011;7323;50.848;4.334;2023-06-19T00:34:35;6.50;;;4.13;;
14474;SDS011;7323;50.848;4.334;2023-06-19T00:37:02;6.33;;;3.80;;
14474;SDS011;7323;50.848;4.334;2023-06-19T00:39:31;5.00;;;3.40;;
14474;SDS011;7323;50.848;4.334;2023-06-19T00:41:57;4.30;;;3.43;;
14474;SDS011;7323;50.848;4.334;2023-06-19T00:44:26;7.90;;;3.80;;
14474;SDS011;7323;50.848;4.334;2023-06-19T00:46:56;4.33;;;3.40;;
14474;SDS011;7323;50.848;4.334;2023-06-19T00:49:24;4.70;;;3.77;;
14474;SDS011;7323;50.848;4.334;2023-06-19T00:51:51;5.13;;;3.70;;
14474;SDS011;7323;50.848;4.334;2023-06-19T00:54:17;6.27;;;4.30;;
14474;SDS011;7323;50.848;4.334;2023-06-19T00:56:44;5.60;;;3.77;;
14474;SDS011;7323;50.848;4.334;2023-06-19T00:59:15;6.67;;;3.73;;
14474;SDS011;7323;50.848;4.334;2023-06-19T01:01:43;4.90;;;3.53;;
14474;SDS011;7323;50.848;4.334;2023-06-19T01:04:10;8.50;;;5.10;;
14474;SDS011;7323;50.848;4.334;2023-06-19T01:06:43;8.20;;;5.50;;
14474;SDS011;7323;50.848;4.334;2023-06-19T01:09:17;8.63;;;7.70;;
14474;SDS011;7323;50.848;4.334;2023-06-19T01:11:47;7.77;;;6.67;;
14474;SDS011;7323;50.848;4.334;2023-06-19T01:14:21;11.47;;;10.23;;
14474;SDS011;7323;50.848;4.334;2023-06-19T01:16:51;12.00;;;10.80;;
14474;SDS011;7323;50.848;4.334;2023-06-19T01:19:20;17.07;;;15.53;;
14474;SDS011;7323;50.848;4.334;2023-06-19T01:21:47;15.30;;;13.90;;
14474;SDS011;7323;50.848;4.334;2023-06-19T01:24:14;12.37;;;9.23;;
14474;SDS011;7323;50.848;4.334;2023-06-19T01:26:40;10.03;;;8.40;;
14474;SDS011;7323;50.848;4.334;2023-06-19T01:29:07;13.23;;;11.83;;
14474;SDS011;7323;50.848;4.334;2023-06-19T01:31:37;12.63;;;10.90;;
14474;SDS011;7323;50.848;4.334;2023-06-19T01:37:01;6.80;;;5.30;;
14474;SDS011;7323;50.848;4.334;2023-06-19T01:42:34;7.27;;;4.90;;
14474;SDS011;7323;50.848;4.334;2023-06-19T01:45:02;4.90;;;4.17;;
14474;SDS011;7323;50.848;4.334;2023-06-19T01:47:29;7.37;;;3.93;;
14474;SDS011;7323;50.848;4.334;2023-06-19T01:49:55;5.60;;;4.50;;
14474;SDS011;7323;50.848;4.334;2023-06-19T01:52:22;8.80;;;5.17;;
14474;SDS011;7323;50.848;4.334;2023-06-19T01:54:49;7.33;;;4.87;;
14474;SDS011;7323;50.848;4.334;2023-06-19T01:57:15;6.50;;;5.00;;
14474;SDS011;7323;50.848;4.334;2023-06-19T01:59:41;6.40;;;4.77;;
14474;SDS011;7323;50.848;4.334;2023-06-19T02:02:07;7.23;;;4.80;;
14474;SDS011;7323;50.848;4.334;2023-06-19T02:04:33;7.37;;;5.33;;
14474;SDS011;7323;50.848;4.334;2023-06-19T02:06:59;8.60;;;5.47;;
14474;SDS011;7323;50.848;4.334;2023-06-19T02:09:24;5.67;;;4.30;;
14474;SDS011;7323;50.848;4.334;2023-06-19T02:11:50;7.93;;;4.90;;
14474;SDS011;7323;50.848;4.334;2023-06-19T02:14:17;6.53;;;4.87;;
14474;SDS011;7323;50.848;4.334;2023-06-19T02:16:43;8.60;;;5.50;;
14474;SDS011;7323;50.848;4.334;2023-06-19T02:19:11;6.60;;;4.83;;
14474;SDS011;7323;50.848;4.334;2023-06-19T02:21:37;6.07;;;4.87;;
14474;SDS011;7323;50.848;4.334;2023-06-19T02:24:04;7.10;;;4.83;;
14474;SDS011;7323;50.848;4.334;2023-06-19T02:26:30;8.23;;;4.90;;
14474;SDS011;7323;50.848;4.334;2023-06-19T02:28:56;6.80;;;5.40;;
14474;SDS011;7323;50.848;4.334;2023-06-19T02:31:24;6.10;;;5.50;;
14474;SDS011;7323;50.848;4.334;2023-06-19T02:33:51;8.67;;;6.00;;
14474;SDS011;7323;50.848;4.334;2023-06-19T02:36:16;7.40;;;5.87;;
14474;SDS011;7323;50.848;4.334;2023-06-19T02:38:45;6.97;;;5.53;;
14474;SDS011;7323;50.848;4.334;2023-06-19T02:41:12;7.37;;;6.30;;
14474;SDS011;7323;50.848;4.334;2023-06-19T02:43:38;6.43;;;5.50;;
14474;SDS011;7323;50.848;4.334;2023-06-19T02:46:06;7.60;;;6.10;;
14474;SDS011;7323;50.848;4.334;2023-06-19T02:48:31;7.60;;;6.30;;
14474;SDS011;7323;50.848;4.334;2023-06-19T02:50:57;11.10;;;6.23;;
14474;SDS011;7323;50.848;4.334;2023-06-19T02:53:23;7.10;;;5.90;;
14474;SDS011;7323;50.848;4.334;2023-06-19T02:55:49;8.23;;;5.67;;
14474;SDS011;7323;50.848;4.334;2023-06-19T02:58:15;8.47;;;6.43;;
14474;SDS011;7323;50.848;4.334;2023-06-19T03:00:41;7.63;;;6.37;;
14474;SDS011;7323;50.848;4.334;2023-06-19T03:03:07;8.63;;;6.47;;
14474;SDS011;7323;50.848;4.334;2023-06-19T03:05:33;12.63;;;7.37;;
14474;SDS011;7323;50.848;4.334;2023-06-19T03:07:59;10.77;;;6.57;;
14474;SDS011;7323;50.848;4.334;2023-06-19T03:10:25;7.60;;;6.83;;
14474;SDS011;7323;50.848;4.334;2023-06-19T03:12:50;11.97;;;8.40;;
14474;SDS011;7323;50.848;4.334;2023-06-19T03:15:16;8.97;;;8.07;;
14474;SDS011;7323;50.848;4.334;2023-06-19T03:17:42;10.07;;;8.73;;
14474;SDS011;7323;50.848;4.334;2023-06-19T03:20:08;8.70;;;7.90;;
14474;SDS011;7323;50.848;4.334;2023-06-19T03:22:41;12.77;;;8.67;;
14474;SDS011;7323;50.848;4.334;2023-06-19T03:25:07;11.60;;;8.03;;
14474;SDS011;7323;50.848;4.334;2023-06-19T03:27:33;11.60;;;7.83;;
14474;SDS011;7323;50.848;4.334;2023-06-19T03:30:00;13.50;;;7.40;;
14474;SDS011;7323;50.848;4.334;2023-06-19T03:32:27;9.27;;;8.10;;
14474;SDS011;7323;50.848;4.334;2023-06-19T03:35:01;9.73;;;7.87;;
14474;SDS011;7323;50.848;4.334;2023-06-19T03:37:27;8.97;;;8.07;;
14474;SDS011;7323;50.848;4.334;2023-06-19T03:39:53;9.67;;;8.10;;
14474;SDS011;7323;50.848;4.334;2023-06-19T03:42:19;11.80;;;8.97;;
14474;SDS011;7323;50.848;4.334;2023-06-19T03:44:51;11.13;;;10.03;;
14474;SDS011;7323;50.848;4.334;2023-06-19T03:47:17;11.53;;;9.57;;
14474;SDS011;7323;50.848;4.334;2023-06-19T03:49:43;10.37;;;8.30;;
14474;SDS011;7323;50.848;4.334;2023-06-19T03:52:12;10.77;;;8.83;;
14474;SDS011;7323;50.848;4.334;2023-06-19T03:54:37;9.23;;;8.33;;
14474;SDS011;7323;50.848;4.334;2023-06-19T03:57:03;10.90;;;9.13;;
14474;SDS011;7323;50.848;4.334;2023-06-19T03:59:30;9.00;;;8.10;;
14474;SDS011;7323;50.848;4.334;2023-06-19T04:01:56;8.43;;;7.53;;
14474;SDS011;7323;50.848;4.334;2023-06-19T04:04:24;9.00;;;7.80;;
14474;SDS011;7323;50.848;4.334;2023-06-19T04:06:50;9.07;;;8.17;;
14474;SDS011;7323;50.848;4.334;2023-06-19T04:09:16;9.27;;;7.33;;
14474;SDS011;7323;50.848;4.334;2023-06-19T04:11:42;10.83;;;7.50;;
14474;SDS011;7323;50.848;4.334;2023-06-19T04:14:08;10.70;;;7.93;;
14474;SDS011;7323;50.848;4.334;2023-06-19T04:16:33;9.23;;;6.67;;
14474;SDS011;7323;50.848;4.334;2023-06-19T04:18:59;9.00;;;7.27;;
14474;SDS011;7323;50.848;4.334;2023-06-19T04:21:25;8.03;;;6.80;;
14474;SDS011;7323;50.848;4.334;2023-06-19T04:23:51;7.57;;;6.73;;
14474;SDS011;7323;50.848;4.334;2023-06-19T04:26:16;7.47;;;6.77;;
14474;SDS011;7323;50.848;4.334;2023-06-19T04:28:44;8.43;;;6.67;;
14474;SDS011;7323;50.848;4.334;2023-06-19T04:31:09;9.17;;;7.20;;
14474;SDS011;7323;50.848;4.334;2023-06-19T04:33:35;9.60;;;7.73;;
14474;SDS011;7323;50.848;4.334;2023-06-19T04:36:01;11.20;;;7.57;;
14474;SDS011;7323;50.848;4.334;2023-06-19T04:38:27;9.77;;;7.90;;
14474;SDS011;7323;50.848;4.334;2023-06-19T04:40:52;9.87;;;8.40;;
14474;SDS011;7323;50.848;4.334;2023-06-19T04:43:18;10.70;;;9.60;;
14474;SDS011;7323;50.848;4.334;2023-06-19T04:45:45;12.83;;;9.80;;
14474;SDS011;7323;50.848;4.334;2023-06-19T04:48:12;11.63;;;10.43;;
14474;SDS011;7323;50.848;4.334;2023-06-19T04:50:38;11.87;;;10.37;;
14474;SDS011;7323;50.848;4.334;2023-06-19T04:53:03;12.10;;;10.87;;
14474;SDS011;7323;50.848;4.334;2023-06-19T04:55:29;12.07;;;10.77;;
14474;SDS011;7323;50.848;4.334;2023-06-19T04:57:55;12.40;;;9.87;;
14474;SDS011;7323;50.848;4.334;2023-06-19T05:00:21;12.13;;;10.77;;
14474;SDS011;7323;50.848;4.334;2023-06-19T05:02:48;14.37;;;11.67;;
14474;SDS011;7323;50.848;4.334;2023-06-19T05:05:15;12.83;;;11.53;;
14474;SDS011;7323;50.848;4.334;2023-06-19T05:07:43;13.07;;;11.47;;
14474;SDS011;7323;50.848;4.334;2023-06-19T05:10:10;12.33;;;11.03;;
14474;SDS011;7323;50.848;4.334;2023-06-19T05:12:36;13.87;;;11.63;;
14474;SDS011;7323;50.848;4.334;2023-06-19T05:15:02;11.67;;;10.07;;
14474;SDS011;7323;50.848;4.334;2023-06-19T05:17:28;14.30;;;11.63;;
14474;SDS011;7323;50.848;4.334;2023-06-19T05:19:55;13.20;;;11.77;;
14474;SDS011;7323;50.848;4.334;2023-06-19T05:22:23;12.73;;;11.20;;
14474;SDS011;7323;50.848;4.334;2023-06-19T05:24:49;14.67;;;12.20;;
14474;SDS011;7323;50.848;4.334;2023-06-19T05:27:15;14.47;;;12.70;;
14474;SDS011;7323;50.848;4.334;2023-06-19T05:29:40;16.10;;;13.17;;
14474;SDS011;7323;50.848;4.334;2023-06-19T05:32:06;16.07;;;14.37;;
14474;SDS011;7323;50.848;4.334;2023-06-19T05:34:32;15.73;;;13.27;;
14474;SDS011;7323;50.848;4.334;2023-06-19T05:36:58;15.33;;;13.67;;
14474;SDS011;7323;50.848;4.334;2023-06-19T05:39:25;16.67;;;14.60;;
14474;SDS011;7323;50.848;4.334;2023-06-19T05:41:51;19.10;;;15.30;;
14474;SDS011;7323;50.848;4.334;2023-06-19T05:44:17;17.70;;;15.60;;
14474;SDS011;7323;50.848;4.334;2023-06-19T05:46:43;16.53;;;14.80;;
14474;SDS011;7323;50.848;4.334;2023-06-19T05:49:09;16.20;;;14.43;;
14474;SDS011;7323;50.848;4.334;2023-06-19T05:51:35;15.57;;;13.97;;
14474;SDS011;7323;50.848;4.334;2023-06-19T05:54:01;18.63;;;15.47;;
14474;SDS011;7323;50.848;4.334;2023-06-19T05:56:31;16.47;;;14.87;;
14474;SDS011;7323;50.848;4.334;2023-06-19T05:58:58;20.73;;;15.60;;
14474;SDS011;7323;50.848;4.334;2023-06-19T06:01:27;17.13;;;15.30;;
14474;SDS011;7323;50.848;4.334;2023-06-19T06:03:54;20.87;;;15.40;;
14474;SDS011;7323;50.848;4.334;2023-06-19T06:06:21;17.90;;;15.40;;
14474;SDS011;7323;50.848;4.334;2023-06-19T06:08:48;17.00;;;15.10;;
14474;SDS011;7323;50.848;4.334;2023-06-19T06:11:15;16.57;;;14.73;;
14474;SDS011;7323;50.848;4.334;2023-06-19T06:13:40;15.63;;;13.67;;
14474;SDS011;7323;50.848;4.334;2023-06-19T06:16:06;15.90;;;14.23;;
14474;SDS011;7323;50.848;4.334;2023-06-19T06:18:32;15.93;;;14.20;;
14474;SDS011;7323;50.848;4.334;2023-06-19T06:20:58;16.00;;;14.33;;
14474;SDS011;7323;50.848;4.334;2023-06-19T06:23:24;17.17;;;15.03;;
14474;SDS011;7323;50.848;4.334;2023-06-19T06:25:51;16.90;;;15.30;;
14474;SDS011;7323;50.848;4.334;2023-06-19T06:28:17;18.43;;;16.70;;
14474;SDS011;7323;50.848;4.334;2023-06-19T06:30:43;19.43;;;16.87;;
14474;SDS011;7323;50.848;4.334;2023-06-19T06:33:09;19.50;;;16.77;;
14474;SDS011;7323;50.848;4.334;2023-06-19T06:35:34;19.30;;;17.23;;
14474;SDS011;7323;50.848;4.334;2023-06-19T06:38:01;18.73;;;16.83;;
14474;SDS011;7323;50.848;4.334;2023-06-19T06:40:29;19.53;;;17.60;;
14474;SDS011;7323;50.848;4.334;2023-06-19T06:42:56;19.80;;;17.67;;
14474;SDS011;7323;50.848;4.334;2023-06-19T06:45:22;18.87;;;16.90;;
14474;SDS011;7323;50.848;4.334;2023-06-19T06:47:49;21.10;;;17.33;;
14474;SDS011;7323;50.848;4.334;2023-06-19T06:50:14;17.97;;;16.17;;
14474;SDS011;7323;50.848;4.334;2023-06-19T06:52:40;18.80;;;16.80;;
14474;SDS011;7323;50.848;4.334;2023-06-19T06:55:06;18.33;;;16.30;;
14474;SDS011;7323;50.848;4.334;2023-06-19T06:57:32;18.23;;;16.37;;
14474;SDS011;7323;50.848;4.334;2023-06-19T06:59:58;18.93;;;16.93;;
14474;SDS011;7323;50.848;4.334;2023-06-19T07:02:23;20.43;;;18.23;;
14474;SDS011;7323;50.848;4.334;2023-06-19T07:04:49;19.33;;;17.33;;
14474;SDS011;7323;50.848;4.334;2023-06-19T07:07:17;19.37;;;17.30;;
14474;SDS011;7323;50.848;4.334;2023-06-19T07:09:42;19.03;;;17.10;;
14474;SDS011;7323;50.848;4.334;2023-06-19T07:12:08;18.87;;;16.77;;
14474;SDS011;7323;50.848;4.334;2023-06-19T07:14:37;19.27;;;16.43;;
14474;SDS011;7323;50.848;4.334;2023-06-19T07:19:33;18.00;;;16.20;;
14474;SDS011;7323;50.848;4.334;2023-06-19T07:22:05;17.40;;;14.60;;
14474;SDS011;7323;50.848;4.334;2023-06-19T07:27:00;16.57;;;14.97;;
14474;SDS011;7323;50.848;4.334;2023-06-19T07:29:26;17.83;;;14.73;;
14474;SDS011;7323;50.848;4.334;2023-06-19T07:34:41;15.50;;;13.90;;
14474;SDS011;7323;50.848;4.334;2023-06-19T07:37:10;13.97;;;12.60;;
14474;SDS011;7323;50.848;4.334;2023-06-19T07:42:22;14.30;;;12.33;;
14474;SDS011;7323;50.848;4.334;2023-06-19T07:47:29;14.80;;;13.20;;
14474;SDS011;7323;50.848;4.334;2023-06-19T07:50:03;14.67;;;13.13;;
14474;SDS011;7323;50.848;4.334;2023-06-19T07:52:39;15.93;;;14.50;;
14474;SDS011;7323;50.848;4.334;2023-06-19T07:55:08;15.13;;;13.33;;
14474;SDS011;7323;50.848;4.334;2023-06-19T07:57:34;15.00;;;13.33;;
14474;SDS011;7323;50.848;4.334;2023-06-19T08:00:01;14.20;;;12.77;;
14474;SDS011;7323;50.848;4.334;2023-06-19T08:02:47;13.53;;;12.10;;
14474;SDS011;7323;50.848;4.334;2023-06-19T08:05:20;15.57;;;12.13;;
14474;SDS011;7323;50.848;4.334;2023-06-19T08:07:48;12.30;;;11.00;;
14474;SDS011;7323;50.848;4.334;2023-06-19T08:10:13;13.23;;;11.33;;
14474;SDS011;7323;50.848;4.334;2023-06-19T08:12:40;12.97;;;11.33;;
14474;SDS011;7323;50.848;4.334;2023-06-19T08:15:09;10.87;;;9.77;;
14474;SDS011;7323;50.848;4.334;2023-06-19T08:17:35;12.23;;;10.80;;
14474;SDS011;7323;50.848;4.334;2023-06-19T08:20:01;11.13;;;10.03;;
14474;SDS011;7323;50.848;4.334;2023-06-19T08:22:30;12.43;;;11.20;;
14474;SDS011;7323;50.848;4.334;2023-06-19T08:24:57;12.80;;;10.57;;
14474;SDS011;7323;50.848;4.334;2023-06-19T08:27:24;12.83;;;10.83;;
14474;SDS011;7323;50.848;4.334;2023-06-19T08:29:49;12.93;;;10.40;;
14474;SDS011;7323;50.848;4.334;2023-06-19T08:32:17;11.70;;;10.43;;
14474;SDS011;7323;50.848;4.334;2023-06-19T08:34:43;12.57;;;11.13;;
14474;SDS011;7323;50.848;4.334;2023-06-19T08:37:09;12.67;;;10.20;;
14474;SDS011;7323;50.848;4.334;2023-06-19T08:39:34;11.37;;;9.83;;
14474;SDS011;7323;50.848;4.334;2023-06-19T08:42:07;11.33;;;9.63;;
14474;SDS011;7323;50.848;4.334;2023-06-19T08:44:35;10.70;;;9.60;;
14474;SDS011;7323;50.848;4.334;2023-06-19T08:47:07;13.10;;;9.50;;
14474;SDS011;7323;50.848;4.334;2023-06-19T08:49:33;11.40;;;9.13;;
14474;SDS011;7323;50.848;4.334;2023-06-19T08:52:05;12.17;;;9.57;;
14474;SDS011;7323;50.848;4.334;2023-06-19T08:54:32;12.23;;;10.07;;
14474;SDS011;7323;50.848;4.334;2023-06-19T08:57:04;11.30;;;9.70;;
14474;SDS011;7323;50.848;4.334;2023-06-19T08:59:31;12.47;;;9.93;;
14474;SDS011;7323;50.848;4.334;2023-06-19T09:01:57;12.80;;;9.73;;
14474;SDS011;7323;50.848;4.334;2023-06-19T09:04:27;9.70;;;8.50;;
14474;SDS011;7323;50.848;4.334;2023-06-19T09:06:54;11.07;;;9.07;;
14474;SDS011;7323;50.848;4.334;2023-06-19T09:09:22;10.90;;;9.07;;
14474;SDS011;7323;50.848;4.334;2023-06-19T09:12:03;10.03;;;8.33;;
14474;SDS011;7323;50.848;4.334;2023-06-19T09:17:03;12.93;;;9.47;;
14474;SDS011;7323;50.848;4.334;2023-06-19T09:19:36;11.17;;;9.30;;
14474;SDS011;7323;50.848;4.334;2023-06-19T09:22:02;11.37;;;9.77;;
14474;SDS011;7323;50.848;4.334;2023-06-19T09:24:34;12.97;;;9.17;;
14474;SDS011;7323;50.848;4.334;2023-06-19T09:27:19;10.97;;;9.87;;
14474;SDS011;7323;50.848;4.334;2023-06-19T09:29:47;13.53;;;9.93;;
14474;SDS011;7323;50.848;4.334;2023-06-19T09:34:44;14.67;;;10.33;;
14474;SDS011;7323;50.848;4.334;2023-06-19T09:37:13;11.33;;;9.37;;
14474;SDS011;7323;50.848;4.334;2023-06-19T09:39:41;11.50;;;8.77;;
14474;SDS011;7323;50.848;4.334;2023-06-19T09:42:13;10.23;;;8.67;;
14474;SDS011;7323;50.848;4.334;2023-06-19T09:44:43;11.63;;;9.30;;
14474;SDS011;7323;50.848;4.334;2023-06-19T09:47:21;10.53;;;8.07;;
14474;SDS011;7323;50.848;4.334;2023-06-19T09:49:50;11.07;;;7.97;;
14474;SDS011;7323;50.848;4.334;2023-06-19T09:52:19;12.73;;;9.13;;
14474;SDS011;7323;50.848;4.334;2023-06-19T09:54:50;12.07;;;9.33;;
14474;SDS011;7323;50.848;4.334;2023-06-19T09:57:17;14.77;;;8.83;;
14474;SDS011;7323;50.848;4.334;2023-06-19T09:59:48;9.77;;;8.10;;
14474;SDS011;7323;50.848;4.334;2023-06-19T10:02:17;12.57;;;8.67;;
14474;SDS011;7323;50.848;4.334;2023-06-19T10:04:46;11.43;;;9.10;;
14474;SDS011;7323;50.848;4.334;2023-06-19T10:07:18;11.87;;;9.07;;
14474;SDS011;7323;50.848;4.334;2023-06-19T10:10:02;11.77;;;9.20;;
14474;SDS011;7323;50.848;4.334;2023-06-19T10:12:40;13.70;;;10.50;;
14474;SDS011;7323;50.848;4.334;2023-06-19T10:15:11;13.87;;;10.70;;
14474;SDS011;7323;50.848;4.334;2023-06-19T10:17:44;15.50;;;10.77;;
14474;SDS011;7323;50.848;4.334;2023-06-19T10:25:23;12.67;;;9.43;;
14474;SDS011;7323;50.848;4.334;2023-06-19T10:27:49;11.20;;;9.53;;
14474;SDS011;7323;50.848;4.334;2023-06-19T10:30:20;10.37;;;8.13;;
14474;SDS011;7323;50.848;4.334;2023-06-19T10:32:48;12.13;;;8.80;;
14474;SDS011;7323;50.848;4.334;2023-06-19T10:35:16;16.10;;;11.23;;
14474;SDS011;7323;50.848;4.334;2023-06-19T10:37:43;15.40;;;10.13;;
14474;SDS011;7323;50.848;4.334;2023-06-19T10:40:12;12.47;;;10.07;;
14474;SDS011;7323;50.848;4.334;2023-06-19T10:42:40;11.70;;;8.77;;
14474;SDS011;7323;50.848;4.334;2023-06-19T10:45:06;11.60;;;9.37;;
14474;SDS011;7323;50.848;4.334;2023-06-19T10:47:34;12.13;;;9.43;;
14474;SDS011;7323;50.848;4.334;2023-06-19T10:50:00;15.53;;;9.60;;
14474;SDS011;7323;50.848;4.334;2023-06-19T10:52:30;13.20;;;9.60;;
14474;SDS011;7323;50.848;4.334;2023-06-19T10:54:56;11.90;;;9.23;;
14474;SDS011;7323;50.848;4.334;2023-06-19T10:57:29;10.90;;;7.90;;
14474;SDS011;7323;50.848;4.334;2023-06-19T11:02:24;11.50;;;8.63;;
14474;SDS011;7323;50.848;4.334;2023-06-19T11:04:56;12.63;;;8.80;;
14474;SDS011;7323;50.848;4.334;2023-06-19T11:07:22;13.47;;;9.30;;
14474;SDS011;7323;50.848;4.334;2023-06-19T11:09:48;12.80;;;9.70;;
14474;SDS011;7323;50.848;4.334;2023-06-19T11:12:21;16.67;;;9.63;;
14474;SDS011;7323;50.848;4.334;2023-06-19T11:14:47;13.63;;;10.70;;
14474;SDS011;7323;50.848;4.334;2023-06-19T11:17:17;18.23;;;11.30;;
14474;SDS011;7323;50.848;4.334;2023-06-19T11:19:45;19.73;;;11.03;;
14474;SDS011;7323;50.848;4.334;2023-06-19T11:22:11;16.13;;;11.27;;
14474;SDS011;7323;50.848;4.334;2023-06-19T11:24:42;17.53;;;10.57;;
14474;SDS011;7323;50.848;4.334;2023-06-19T11:27:15;17.57;;;11.97;;
14474;SDS011;7323;50.848;4.334;2023-06-19T11:29:43;18.50;;;13.80;;
14474;SDS011;7323;50.848;4.334;2023-06-19T11:32:12;14.57;;;12.37;;
14474;SDS011;7323;50.848;4.334;2023-06-19T11:34:39;16.80;;;12.07;;
14474;SDS011;7323;50.848;4.334;2023-06-19T11:37:14;15.80;;;12.10;;
14474;SDS011;7323;50.848;4.334;2023-06-19T11:39:43;14.03;;;10.07;;
14474;SDS011;7323;50.848;4.334;2023-06-19T11:42:09;12.27;;;9.47;;
14474;SDS011;7323;50.848;4.334;2023-06-19T11:44:35;15.17;;;10.03;;
14474;SDS011;7323;50.848;4.334;2023-06-19T11:47:01;10.50;;;8.50;;
14474;SDS011;7323;50.848;4.334;2023-06-19T11:49:28;18.07;;;9.10;;
14474;SDS011;7323;50.848;4.334;2023-06-19T11:52:00;11.43;;;8.77;;
14474;SDS011;7323;50.848;4.334;2023-06-19T11:54:26;13.90;;;8.70;;
14474;SDS011;7323;50.848;4.334;2023-06-19T11:56:52;14.10;;;8.43;;
14474;SDS011;7323;50.848;4.334;2023-06-19T11:59:18;11.57;;;9.27;;
14474;SDS011;7323;50.848;4.334;2023-06-19T12:01:44;10.40;;;8.03;;
14474;SDS011;7323;50.848;4.334;2023-06-19T12:04:09;13.63;;;8.47;;
14474;SDS011;7323;50.848;4.334;2023-06-19T12:06:35;11.83;;;8.70;;
14474;SDS011;7323;50.848;4.334;2023-06-19T12:09:01;10.57;;;8.07;;
14474;SDS011;7323;50.848;4.334;2023-06-19T12:11:29;10.37;;;7.20;;
14474;SDS011;7323;50.848;4.334;2023-06-19T12:13:55;13.33;;;9.07;;
14474;SDS011;7323;50.848;4.334;2023-06-19T12:16:22;14.43;;;8.57;;
14474;SDS011;7323;50.848;4.334;2023-06-19T12:18:48;9.37;;;7.47;;
14474;SDS011;7323;50.848;4.334;2023-06-19T12:21:15;10.07;;;7.90;;
14474;SDS011;7323;50.848;4.334;2023-06-19T12:23:40;14.57;;;9.03;;
14474;SDS011;7323;50.848;4.334;2023-06-19T12:26:06;12.10;;;8.83;;
14474;SDS011;7323;50.848;4.334;2023-06-19T12:28:32;10.07;;;8.07;;
14474;SDS011;7323;50.848;4.334;2023-06-19T12:30:57;10.27;;;7.90;;
14474;SDS011;7323;50.848;4.334;2023-06-19T12:33:23;10.40;;;7.87;;
14474;SDS011;7323;50.848;4.334;2023-06-19T12:35:49;9.53;;;7.20;;
14474;SDS011;7323;50.848;4.334;2023-06-19T12:38:15;10.97;;;8.10;;
14474;SDS011;7323;50.848;4.334;2023-06-19T12:40:41;9.43;;;7.10;;
14474;SDS011;7323;50.848;4.334;2023-06-19T12:43:07;9.13;;;7.90;;
14474;SDS011;7323;50.848;4.334;2023-06-19T12:45:32;8.20;;;6.27;;
14474;SDS011;7323;50.848;4.334;2023-06-19T12:47:58;9.53;;;6.93;;
14474;SDS011;7323;50.848;4.334;2023-06-19T12:50:24;19.57;;;14.63;;
14474;SDS011;7323;50.848;4.334;2023-06-19T12:52:50;12.17;;;6.93;;
14474;SDS011;7323;50.848;4.334;2023-06-19T12:55:16;9.47;;;6.43;;
14474;SDS011;7323;50.848;4.334;2023-06-19T12:57:41;33.50;;;6.90;;
14474;SDS011;7323;50.848;4.334;2023-06-19T13:00:09;8.40;;;5.97;;
14474;SDS011;7323;50.848;4.334;2023-06-19T13:02:37;9.17;;;6.07;;
14474;SDS011;7323;50.848;4.334;2023-06-19T13:05:08;10.23;;;6.27;;
14474;SDS011;7323;50.848;4.334;2023-06-19T13:07:34;10.13;;;6.10;;
14474;SDS011;7323;50.848;4.334;2023-06-19T13:10:00;9.33;;;5.97;;
14474;SDS011;7323;50.848;4.334;2023-06-19T13:12:26;8.57;;;6.40;;
14474;SDS011;7323;50.848;4.334;2023-06-19T13:14:51;8.57;;;6.93;;
14474;SDS011;7323;50.848;4.334;2023-06-19T13:17:18;10.23;;;6.30;;
14474;SDS011;7323;50.848;4.334;2023-06-19T13:19:44;12.53;;;9.00;;
14474;SDS011;7323;50.848;4.334;2023-06-19T13:22:10;11.07;;;7.57;;
14474;SDS011;7323;50.848;4.334;2023-06-19T13:24:35;8.40;;;6.60;;
14474;SDS011;7323;50.848;4.334;2023-06-19T13:27:01;11.03;;;7.97;;
14474;SDS011;7323;50.848;4.334;2023-06-19T13:29:27;8.40;;;7.00;;
14474;SDS011;7323;50.848;4.334;2023-06-19T13:31:53;13.20;;;6.80;;
14474;SDS011;7323;50.848;4.334;2023-06-19T13:34:19;11.97;;;6.80;;
14474;SDS011;7323;50.848;4.334;2023-06-19T13:36:46;7.35;;;6.57;;
14474;SDS011;7323;50.848;4.334;2023-06-19T13:39:12;10.37;;;6.27;;
14474;SDS011;7323;50.848;4.334;2023-06-19T13:41:38;8.50;;;5.90;;
14474;SDS011;7323;50.848;4.334;2023-06-19T13:44:04;6.47;;;5.60;;
14474;SDS011;7323;50.848;4.334;2023-06-19T13:46:29;7.87;;;5.30;;
14474;SDS011;7323;50.848;4.334;2023-06-19T13:48:56;9.27;;;5.20;;
14474;SDS011;7323;50.848;4.334;2023-06-19T13:51:22;7.80;;;5.30;;
14474;SDS011;7323;50.848;4.334;2023-06-19T13:53:49;6.57;;;5.40;;
14474;SDS011;7323;50.848;4.334;2023-06-19T13:56:15;8.60;;;5.47;;
14474;SDS011;7323;50.848;4.334;2023-06-19T13:58:41;7.53;;;5.57;;
14474;SDS011;7323;50.848;4.334;2023-06-19T14:01:07;7.60;;;5.78;;
14474;SDS011;7323;50.848;4.334;2023-06-19T14:03:33;7.57;;;5.93;;
14474;SDS011;7323;50.848;4.334;2023-06-19T14:06:00;8.25;;;5.50;;
14474;SDS011;7323;50.848;4.334;2023-06-19T14:08:26;11.27;;;5.28;;
14474;SDS011;7323;50.848;4.334;2023-06-19T14:10:51;9.93;;;5.00;;
14474;SDS011;7323;50.848;4.334;2023-06-19T14:13:17;8.40;;;5.53;;
14474;SDS011;7323;50.848;4.334;2023-06-19T14:15:42;8.18;;;5.57;;
14474;SDS011;7323;50.848;4.334;2023-06-19T14:18:08;8.43;;;5.53;;
14474;SDS011;7323;50.848;4.334;2023-06-19T14:20:37;10.13;;;5.35;;
14474;SDS011;7323;50.848;4.334;2023-06-19T14:23:03;7.68;;;4.97;;
14474;SDS011;7323;50.848;4.334;2023-06-19T14:25:30;6.57;;;5.00;;
14474;SDS011;7323;50.848;4.334;2023-06-19T14:27:56;6.03;;;4.97;;
14474;SDS011;7323;50.848;4.334;2023-06-19T14:30:21;11.20;;;7.95;;
14474;SDS011;7323;50.848;4.334;2023-06-19T14:32:47;7.95;;;5.50;;
14474;SDS011;7323;50.848;4.334;2023-06-19T14:35:13;9.13;;;7.43;;
14474;SDS011;7323;50.848;4.334;2023-06-19T14:37:39;6.75;;;5.25;;
14474;SDS011;7323;50.848;4.334;2023-06-19T14:40:05;6.72;;;5.07;;
14474;SDS011;7323;50.848;4.334;2023-06-19T14:42:31;12.18;;;4.90;;
14474;SDS011;7323;50.848;4.334;2023-06-19T14:44:56;10.35;;;7.28;;
14474;SDS011;7323;50.848;4.334;2023-06-19T14:47:23;15.32;;;9.77;;
14474;SDS011;7323;50.848;4.334;2023-06-19T14:49:50;6.97;;;5.28;;
14474;SDS011;7323;50.848;4.334;2023-06-19T14:52:15;20.95;;;17.50;;
14474;SDS011;7323;50.848;4.334;2023-06-19T14:54:41;11.02;;;8.98;;
14474;SDS011;7323;50.848;4.334;2023-06-19T14:57:07;6.50;;;5.45;;
14474;SDS011;7323;50.848;4.334;2023-06-19T14:59:34;8.20;;;4.90;;
14474;SDS011;7323;50.848;4.334;2023-06-19T15:02:00;6.22;;;5.15;;
14474;SDS011;7323;50.848;4.334;2023-06-19T15:04:29;6.53;;;4.70;;
14474;SDS011;7323;50.848;4.334;2023-06-19T15:06:56;5.88;;;4.03;;
14474;SDS011;7323;50.848;4.334;2023-06-19T15:09:22;9.70;;;6.68;;
14474;SDS011;7323;50.848;4.334;2023-06-19T15:11:48;6.53;;;4.60;;
14474;SDS011;7323;50.848;4.334;2023-06-19T15:14:14;8.68;;;7.78;;
14474;SDS011;7323;50.848;4.334;2023-06-19T15:16:42;7.28;;;5.63;;
14474;SDS011;7323;50.848;4.334;2023-06-19T15:19:07;7.20;;;5.23;;
14474;SDS011;7323;50.848;4.334;2023-06-19T15:21:33;6.50;;;4.60;;